createdAt,value
2023-04-18T00:01:27.621Z,16.74
2023-04-18T00:03:55.116Z,16.69
2023-04-18T00:06:22.696Z,16.61
2023-04-18T00:08:50.040Z,16.78
2023-04-18T00:11:17.496Z,16.71
2023-04-18T00:13:47.374Z,16.25
2023-04-18T00:16:15.485Z,16.09
2023-04-18T00:18:42.902Z,15.93
2023-04-18T00:21:10.244Z,16.31
2023-04-18T00:23:37.610Z,16.33
2023-04-18T00:26:04.561Z,16.17
2023-04-18T00:28:31.936Z,16.07
2023-04-18T00:30:58.999Z,16.41
2023-04-18T00:33:26.421Z,16.27
2023-04-18T00:35:53.990Z,16.23
2023-04-18T00:38:21.395Z,16.28
2023-04-18T00:40:48.891Z,16.32
2023-04-18T00:43:16.973Z,16.31
2023-04-18T00:45:44.605Z,16.42
2023-04-18T00:48:12.293Z,16.24
2023-04-18T00:50:41.651Z,16.33
2023-04-18T00:53:11.176Z,16.32
2023-04-18T00:55:39.115Z,16.43
2023-04-18T00:58:06.615Z,16.16
2023-04-18T01:00:37.451Z,16.13
2023-04-18T01:03:04.669Z,16.11
2023-04-18T01:05:31.773Z,16.07
2023-04-18T01:08:01.250Z,15.91
2023-04-18T01:10:29.201Z,16.10
2023-04-18T01:13:12.790Z,16.42
2023-04-18T01:15:46.952Z,16.48
2023-04-18T01:18:18.466Z,16.24
2023-04-18T01:20:49.387Z,16.15
2023-04-18T01:23:18.272Z,16.18
2023-04-18T01:25:47.279Z,16.40
2023-04-18T01:28:15.255Z,16.12
2023-04-18T01:30:42.754Z,15.94
2023-04-18T01:33:09.830Z,15.88
2023-04-18T01:35:37.011Z,16.13
2023-04-18T01:38:04.224Z,16.15
2023-04-18T01:40:31.379Z,15.91
2023-04-18T01:42:58.404Z,15.88
2023-04-18T01:45:25.955Z,16.22
2023-04-18T01:47:53.334Z,16.07
2023-04-18T01:50:20.635Z,16.01
2023-04-18T01:52:48.018Z,15.74
2023-04-18T01:55:16.309Z,16.13
2023-04-18T01:57:43.385Z,15.78
2023-04-18T02:00:11.189Z,15.90
2023-04-18T02:02:44.362Z,16.05
2023-04-18T02:05:14.424Z,16.02
2023-04-18T02:07:42.775Z,16.15
2023-04-18T02:10:11.233Z,16.03
2023-04-18T02:12:38.237Z,16.01
2023-04-18T02:15:06.543Z,16.12
2023-04-18T02:17:36.333Z,15.83
2023-04-18T02:20:03.798Z,15.74
2023-04-18T02:22:31.301Z,16.04
2023-04-18T02:25:00.829Z,15.70
2023-04-18T02:27:27.894Z,15.60
2023-04-18T02:29:57.575Z,15.67
2023-04-18T02:32:25.109Z,15.87
2023-04-18T02:34:52.698Z,15.77
2023-04-18T02:37:19.713Z,15.71
2023-04-18T02:39:46.769Z,15.49
2023-04-18T02:42:13.909Z,15.40
2023-04-18T02:44:41.342Z,15.66
2023-04-18T02:47:09.335Z,15.55
2023-04-18T02:49:39.758Z,15.53
2023-04-18T02:52:06.788Z,15.61
2023-04-18T02:54:33.888Z,15.59
2023-04-18T02:57:08.114Z,15.55
2023-04-18T03:00:08.816Z,15.66
2023-04-18T03:02:54.397Z,15.75
2023-04-18T03:05:39.607Z,15.72
2023-04-18T03:08:07.729Z,15.59
2023-04-18T03:10:37.822Z,15.52
2023-04-18T03:13:05.512Z,15.54
2023-04-18T03:15:33.312Z,15.42
2023-04-18T03:18:00.956Z,15.37
2023-04-18T03:20:31.844Z,15.57
2023-04-18T03:22:58.894Z,15.51
2023-04-18T03:25:27.360Z,15.43
2023-04-18T03:27:54.359Z,15.45
2023-04-18T03:30:23.228Z,15.62
2023-04-18T03:32:53.851Z,15.71
2023-04-18T03:35:20.924Z,15.51
2023-04-18T03:37:47.951Z,15.53
2023-04-18T03:40:22.819Z,15.44
2023-04-18T03:42:52.618Z,15.48
2023-04-18T03:45:20.553Z,15.51
2023-04-18T03:47:48.319Z,15.44
2023-04-18T03:50:16.579Z,15.49
2023-04-18T03:52:45.907Z,15.27
2023-04-18T03:55:14.060Z,15.51
2023-04-18T03:57:41.410Z,15.43
2023-04-18T04:00:12.745Z,15.50
2023-04-18T04:02:56.360Z,15.65
2023-04-18T04:05:23.619Z,15.53
2023-04-18T04:07:51.412Z,15.59
2023-04-18T04:10:19.067Z,15.59
2023-04-18T04:12:48.023Z,15.67
2023-04-18T04:15:15.751Z,15.63
2023-04-18T04:17:51.186Z,15.66
2023-04-18T04:20:24.096Z,15.64
2023-04-18T04:22:58.735Z,15.48
2023-04-18T04:25:30.881Z,15.53
2023-04-18T04:28:02.737Z,15.38
2023-04-18T04:30:33.697Z,15.43
2023-04-18T04:33:01.980Z,15.73
2023-04-18T04:35:29.160Z,15.50
2023-04-18T04:37:56.656Z,15.61
2023-04-18T04:40:33.625Z,15.44
2023-04-18T04:43:12.514Z,15.46
2023-04-18T04:45:41.513Z,15.26
2023-04-18T04:48:09.675Z,15.42
2023-04-18T04:50:40.383Z,15.62
2023-04-18T04:53:08.240Z,15.21
2023-04-18T04:55:35.988Z,15.22
2023-04-18T04:58:04.687Z,15.07
2023-04-18T05:00:42.733Z,14.91
2023-04-18T05:03:10.751Z,15.09
2023-04-18T05:05:38.052Z,15.19
2023-04-18T05:08:05.430Z,15.36
2023-04-18T05:10:33.168Z,15.06
2023-04-18T05:13:00.245Z,15.49
2023-04-18T05:15:27.642Z,14.94
2023-04-18T05:17:54.737Z,14.94
2023-04-18T05:20:21.837Z,14.58
2023-04-18T05:22:48.926Z,15.21
2023-04-18T05:25:16.228Z,15.03
2023-04-18T05:27:43.714Z,14.96
2023-04-18T05:30:11.725Z,15.12
2023-04-18T05:32:41.281Z,15.48
2023-04-18T05:35:09.093Z,15.26
2023-04-18T05:37:36.262Z,14.96
2023-04-18T05:40:05.376Z,15.16
2023-04-18T05:42:32.751Z,15.16
2023-04-18T05:45:00.276Z,14.62
2023-04-18T05:47:28.867Z,14.72
2023-04-18T05:49:56.121Z,14.90
2023-04-18T05:52:23.331Z,15.02
2023-04-18T05:54:51.007Z,15.01
2023-04-18T05:57:18.420Z,14.64
2023-04-18T05:59:45.837Z,14.95
2023-04-18T06:02:15.595Z,14.74
2023-04-18T06:04:43.202Z,15.02
2023-04-18T06:07:10.837Z,14.83
2023-04-18T06:09:37.955Z,14.52
2023-04-18T06:12:05.218Z,14.78
2023-04-18T06:14:32.896Z,14.66
2023-04-18T06:17:00.213Z,14.83
2023-04-18T06:19:27.251Z,14.31
2023-04-18T06:21:54.410Z,14.57
2023-04-18T06:24:21.946Z,14.96
2023-04-18T06:26:49.170Z,14.74
2023-04-18T06:29:18.091Z,15.17
2023-04-18T06:31:46.200Z,14.71
2023-04-18T06:34:14.351Z,14.97
2023-04-18T06:36:41.613Z,15.29
2023-04-18T06:39:08.948Z,15.02
2023-04-18T06:41:36.022Z,14.95
2023-04-18T06:44:04.648Z,14.84
2023-04-18T06:46:32.974Z,15.15
2023-04-18T06:49:00.462Z,14.88
2023-04-18T06:51:27.721Z,14.92
2023-04-18T06:53:55.219Z,14.96
2023-04-18T06:56:22.539Z,14.62
2023-04-18T06:58:50.198Z,15.11
2023-04-18T07:01:17.757Z,14.95
2023-04-18T07:03:44.981Z,14.66
2023-04-18T07:06:12.539Z,14.59
2023-04-18T07:08:39.577Z,14.56
2023-04-18T07:11:06.864Z,14.94
2023-04-18T07:13:33.872Z,14.66
2023-04-18T07:16:01.656Z,15.08
2023-04-18T07:18:37.574Z,14.74
2023-04-18T07:21:09.178Z,14.40
2023-04-18T07:23:37.512Z,14.83
2023-04-18T07:26:05.843Z,14.76
2023-04-18T07:28:33.192Z,14.76
2023-04-18T07:31:01.258Z,15.28
2023-04-18T07:33:31.816Z,15.17
2023-04-18T07:35:58.987Z,15.26
2023-04-18T07:38:26.152Z,15.37
2023-04-18T07:41:00.614Z,15.48
2023-04-18T07:43:28.103Z,15.41
2023-04-18T07:45:55.595Z,15.42
2023-04-18T07:48:23.150Z,15.00
2023-04-18T07:50:50.214Z,14.95
2023-04-18T07:53:17.372Z,14.98
2023-04-18T07:55:45.355Z,15.37
2023-04-18T07:58:12.980Z,15.79
2023-04-18T08:00:42.379Z,15.30
2023-04-18T08:03:13.185Z,15.71
2023-04-18T08:05:41.691Z,15.13
2023-04-18T08:08:13.305Z,15.40
2023-04-18T08:10:40.415Z,15.41
2023-04-18T08:13:08.230Z,14.98
2023-04-18T08:15:35.687Z,15.14
2023-04-18T08:18:02.930Z,15.41
2023-04-18T08:20:30.445Z,15.75
2023-04-18T08:23:07.407Z,15.84
2023-04-18T08:25:37.074Z,16.13
2023-04-18T08:28:04.589Z,15.95
2023-04-18T08:30:35.429Z,15.53
2023-04-18T08:33:02.756Z,15.34
2023-04-18T08:35:30.266Z,15.34
2023-04-18T08:37:57.410Z,15.32
2023-04-18T08:40:24.629Z,15.59
2023-04-18T08:42:53.966Z,16.03
2023-04-18T08:45:21.496Z,15.92
2023-04-18T08:47:48.658Z,15.56
2023-04-18T08:50:17.306Z,15.96
2023-04-18T08:52:49.056Z,16.32
2023-04-18T08:55:16.504Z,16.49
2023-04-18T08:57:44.270Z,15.61
2023-04-18T09:00:12.078Z,15.63
2023-04-18T09:02:45.013Z,15.68
2023-04-18T09:05:19.977Z,16.12
2023-04-18T09:07:54.509Z,16.12
2023-04-18T09:10:33.448Z,16.31
2023-04-18T09:13:03.524Z,16.40
2023-04-18T09:15:31.516Z,16.05
2023-04-18T09:18:03.384Z,16.42
2023-04-18T09:20:38.383Z,16.35
2023-04-18T09:23:11.605Z,16.25
2023-04-18T09:25:46.521Z,16.67
2023-04-18T09:28:29.803Z,16.84
2023-04-18T09:30:59.605Z,17.32
2023-04-18T09:33:34.503Z,17.12
2023-04-18T09:36:18.623Z,17.05
2023-04-18T09:41:15.973Z,16.64
2023-04-18T09:43:44.718Z,17.28
2023-04-18T09:46:12.635Z,17.31
2023-04-18T09:48:41.428Z,17.05
2023-04-18T09:51:17.247Z,16.83
2023-04-18T09:53:45.368Z,16.74
2023-04-18T09:56:20.773Z,17.11
2023-04-18T09:58:48.630Z,16.28
2023-04-18T10:01:16.809Z,16.43
2023-04-18T10:03:48.755Z,16.86
2023-04-18T10:06:17.361Z,17.06
2023-04-18T10:08:49.335Z,17.36
2023-04-18T10:11:18.586Z,16.86
2023-04-18T10:13:48.584Z,17.31
2023-04-18T10:16:17.109Z,17.36
2023-04-18T10:18:44.251Z,16.75
2023-04-18T10:21:11.665Z,17.05
2023-04-18T10:23:40.584Z,16.98
2023-04-18T10:26:09.597Z,17.43
2023-04-18T10:28:57.244Z,17.26
2023-04-18T10:31:27.171Z,17.34
2023-04-18T10:36:28.560Z,17.45
2023-04-18T10:39:22.870Z,17.25
2023-04-18T10:41:51.525Z,17.85
2023-04-18T10:44:22.262Z,18.25
2023-04-18T10:46:52.823Z,16.35
2023-04-18T10:49:28.380Z,15.72
2023-04-18T10:51:59.162Z,15.26
2023-04-18T10:54:50.055Z,16.10
2023-04-18T10:57:17.269Z,15.74
2023-04-18T10:59:52.124Z,16.01
2023-04-18T11:02:32.592Z,16.09
2023-04-18T11:05:04.738Z,16.00
2023-04-18T11:07:45.059Z,16.08
2023-04-18T11:10:13.465Z,15.93
2023-04-18T11:12:41.481Z,15.81
2023-04-18T11:15:22.171Z,14.68
2023-04-18T11:18:01.817Z,15.42
2023-04-18T11:20:30.653Z,15.67
2023-04-18T11:23:00.678Z,16.02
2023-04-18T11:25:31.850Z,15.87
2023-04-18T11:28:04.017Z,15.86
2023-04-18T11:30:41.073Z,16.23
2023-04-18T11:33:16.937Z,16.45
2023-04-18T11:35:50.457Z,16.47
2023-04-18T11:38:18.519Z,16.35
2023-04-18T11:40:50.565Z,15.92
2023-04-18T11:43:24.051Z,16.75
2023-04-18T11:45:56.618Z,16.67
2023-04-18T11:48:24.427Z,16.21
2023-04-18T11:50:52.092Z,15.60
2023-04-18T11:53:37.124Z,16.62
2023-04-18T11:56:05.737Z,16.67
2023-04-18T11:58:36.785Z,17.00
2023-04-18T12:01:17.890Z,16.69
2023-04-18T12:04:06.693Z,17.43
2023-04-18T12:06:47.723Z,16.45
2023-04-18T12:09:18.482Z,16.93
2023-04-18T12:12:01.116Z,17.29
2023-04-18T12:14:28.982Z,16.83
2023-04-18T12:16:57.211Z,17.12
2023-04-18T12:19:29.521Z,17.17
2023-04-18T12:22:03.037Z,17.65
2023-04-18T12:24:30.335Z,16.91
2023-04-18T12:27:00.756Z,16.68
2023-04-18T12:29:29.389Z,16.77
2023-04-18T12:31:56.655Z,16.62
2023-04-18T12:34:23.841Z,16.78
2023-04-18T12:36:52.285Z,17.05
2023-04-18T12:39:19.241Z,16.54
2023-04-18T12:41:49.450Z,16.37
2023-04-18T12:44:17.207Z,16.17
2023-04-18T12:46:44.256Z,16.62
2023-04-18T12:49:11.191Z,17.25
2023-04-18T12:51:38.751Z,16.68
2023-04-18T12:54:06.196Z,17.42
2023-04-18T12:56:33.186Z,17.69
2023-04-18T12:59:00.177Z,17.40
2023-04-18T13:01:27.939Z,17.68
2023-04-18T13:04:08.226Z,16.74
2023-04-18T13:06:40.496Z,17.09
2023-04-18T13:09:08.163Z,17.60
2023-04-18T13:11:35.634Z,17.38
2023-04-18T13:14:03.073Z,17.58
2023-04-18T13:16:30.085Z,18.00
2023-04-18T13:18:57.076Z,17.57
2023-04-18T13:21:25.671Z,17.31
2023-04-18T13:23:52.705Z,17.09
2023-04-18T13:26:20.701Z,17.41
2023-04-18T13:28:48.155Z,16.96
2023-04-18T13:31:16.944Z,16.96
2023-04-18T13:33:44.313Z,17.68
2023-04-18T13:36:11.310Z,17.43
2023-04-18T13:38:39.264Z,16.50
2023-04-18T13:41:12.737Z,17.26
2023-04-18T13:43:41.000Z,16.14
2023-04-18T13:46:08.126Z,16.42
2023-04-18T13:48:35.670Z,16.94
2023-04-18T13:51:03.134Z,17.33
2023-04-18T13:53:31.179Z,16.81
2023-04-18T13:55:59.755Z,17.89
2023-04-18T13:58:26.793Z,18.23
2023-04-18T14:00:54.545Z,18.34
2023-04-18T14:03:21.811Z,17.92
2023-04-18T14:05:48.955Z,17.88
2023-04-18T14:08:16.081Z,17.74
2023-04-18T14:10:43.066Z,18.12
2023-04-18T14:13:10.699Z,18.69
2023-04-18T14:15:37.706Z,18.11
2023-04-18T14:18:09.873Z,18.24
2023-04-18T14:20:37.921Z,18.31
2023-04-18T14:23:05.180Z,18.12
2023-04-18T14:25:32.266Z,18.31
2023-04-18T14:28:09.614Z,17.45
2023-04-18T14:30:37.768Z,17.63
2023-04-18T14:33:05.602Z,17.56
2023-04-18T14:35:33.510Z,18.06
2023-04-18T14:38:00.984Z,17.76
2023-04-18T14:40:29.142Z,16.85
2023-04-18T14:42:57.904Z,17.57
2023-04-18T14:45:25.288Z,16.75
2023-04-18T14:47:53.027Z,17.39
2023-04-18T14:50:20.636Z,17.46
2023-04-18T14:52:55.035Z,17.72
2023-04-18T14:55:22.540Z,17.46
2023-04-18T14:57:49.476Z,17.91
2023-04-18T15:00:17.144Z,18.02
2023-04-18T15:02:44.983Z,17.50
2023-04-18T15:05:13.272Z,17.59
2023-04-18T15:07:42.897Z,17.27
2023-04-18T15:10:12.734Z,17.41
2023-04-18T15:12:42.737Z,17.32
2023-04-18T15:15:12.326Z,17.61
2023-04-18T15:17:39.936Z,17.85
2023-04-18T15:20:08.119Z,17.40
2023-04-18T15:22:36.130Z,17.07
2023-04-18T15:25:04.819Z,17.07
2023-04-18T15:27:31.909Z,16.52
2023-04-18T15:30:02.694Z,17.22
2023-04-18T15:32:30.204Z,17.40
2023-04-18T15:34:57.795Z,17.28
2023-04-18T15:37:26.297Z,17.60
2023-04-18T15:39:54.173Z,18.33
2023-04-18T15:42:21.546Z,17.49
2023-04-18T15:44:49.549Z,17.40
2023-04-18T15:47:17.135Z,17.69
2023-04-18T15:52:52.135Z,17.32
2023-04-18T15:56:11.995Z,17.77
2023-04-18T15:59:06.757Z,17.37
2023-04-18T16:01:35.652Z,17.61
2023-04-18T16:04:03.215Z,17.60
2023-04-18T16:06:31.693Z,17.46
2023-04-18T16:08:58.814Z,17.29
2023-04-18T16:11:26.354Z,17.79
2023-04-18T16:13:56.121Z,17.21
2023-04-18T16:16:23.667Z,16.91
2023-04-18T16:18:51.289Z,17.73
2023-04-18T16:21:18.712Z,17.57
2023-04-18T16:23:46.107Z,17.55
2023-04-18T16:26:13.503Z,17.44
2023-04-18T16:28:42.335Z,16.97
2023-04-18T16:31:09.465Z,17.12
2023-04-18T16:33:36.978Z,17.65
2023-04-18T16:36:04.617Z,17.28
2023-04-18T16:38:32.054Z,17.54
2023-04-18T16:41:01.513Z,17.12
2023-04-18T16:43:30.891Z,17.68
2023-04-18T16:46:00.392Z,17.85
2023-04-18T16:48:29.100Z,17.46
2023-04-18T16:50:56.713Z,17.78
2023-04-18T16:53:24.473Z,17.42
2023-04-18T16:55:53.117Z,17.15
2023-04-18T16:58:21.614Z,17.80
2023-04-18T17:00:49.222Z,17.55
2023-04-18T17:03:16.943Z,17.33
2023-04-18T17:05:44.619Z,17.20
2023-04-18T17:08:11.997Z,16.78
2023-04-18T17:10:39.374Z,17.43
2023-04-18T17:13:06.854Z,17.28
2023-04-18T17:15:34.256Z,16.92
2023-04-18T17:18:02.549Z,17.17
2023-04-18T17:20:30.173Z,17.57
2023-04-18T17:22:57.604Z,16.37
2023-04-18T17:25:24.673Z,16.78
2023-04-18T17:27:54.302Z,17.35
2023-04-18T17:30:21.842Z,17.15
2023-04-18T17:32:50.596Z,16.53
2023-04-18T17:35:18.104Z,16.92
2023-04-18T17:37:46.698Z,15.78
2023-04-18T17:40:14.503Z,16.26
2023-04-18T17:42:42.222Z,16.49
2023-04-18T17:45:10.676Z,16.54
2023-04-18T17:47:37.889Z,17.33
2023-04-18T17:50:05.601Z,16.46
2023-04-18T17:52:32.782Z,16.38
2023-04-18T17:55:03.251Z,17.02
2023-04-18T17:57:33.023Z,17.01
2023-04-18T18:00:00.424Z,16.55
2023-04-18T18:02:30.871Z,16.95
2023-04-18T18:04:58.374Z,15.98
2023-04-18T18:07:26.480Z,16.24
2023-04-18T18:09:53.915Z,16.47
2023-04-18T18:12:21.501Z,16.32
2023-04-18T18:14:48.857Z,16.56
2023-04-18T18:17:34.774Z,16.63
2023-04-18T18:20:02.399Z,16.74
2023-04-18T18:22:29.873Z,16.29
2023-04-18T18:24:57.463Z,16.88
2023-04-18T18:27:25.018Z,17.13
2023-04-18T18:29:52.764Z,16.88
2023-04-18T18:32:20.535Z,16.50
2023-04-18T18:34:47.785Z,16.46
2023-04-18T18:37:15.926Z,15.93
2023-04-18T18:39:43.380Z,15.98
2023-04-18T18:42:10.807Z,16.81
2023-04-18T18:44:38.233Z,16.30
2023-04-18T18:47:05.882Z,16.39
2023-04-18T18:49:33.412Z,16.54
2023-04-18T18:52:03.565Z,16.45
2023-04-18T18:54:31.378Z,16.64
2023-04-18T18:57:01.683Z,16.28
2023-04-18T18:59:29.733Z,16.32
2023-04-18T19:01:56.858Z,16.11
2023-04-18T19:04:25.035Z,16.13
2023-04-18T19:06:53.560Z,16.21
2023-04-18T19:09:21.045Z,16.83
2023-04-18T19:11:48.236Z,15.92
2023-04-18T19:14:15.737Z,16.26
2023-04-18T19:16:43.204Z,16.50
2023-04-18T19:19:10.411Z,16.52
2023-04-18T19:21:39.725Z,16.52
2023-04-18T19:24:06.989Z,16.68
2023-04-18T19:26:34.669Z,16.61
2023-04-18T19:29:02.356Z,16.85
2023-04-18T19:31:30.055Z,16.92
2023-04-18T19:33:57.679Z,15.42
2023-04-18T19:36:24.756Z,16.18
2023-04-18T19:38:52.205Z,16.06
2023-04-18T19:41:19.696Z,16.00
2023-04-18T19:43:46.797Z,16.02
2023-04-18T19:46:16.555Z,16.33
2023-04-18T19:48:46.795Z,16.81
2023-04-18T19:51:14.339Z,16.20
2023-04-18T19:53:41.432Z,16.22
2023-04-18T19:56:11.135Z,15.48
2023-04-18T19:58:44.988Z,16.91
2023-04-18T20:01:14.306Z,16.32
2023-04-18T20:03:42.877Z,16.49
2023-04-18T20:06:10.876Z,16.13
2023-04-18T20:08:45.077Z,16.01
2023-04-18T20:11:16.575Z,15.64
2023-04-18T20:13:46.545Z,15.98
2023-04-18T20:16:13.962Z,16.01
2023-04-18T20:18:41.875Z,16.07
2023-04-18T20:21:10.819Z,16.04
2023-04-18T20:23:39.414Z,16.05
2023-04-18T20:26:09.278Z,16.57
2023-04-18T20:28:40.976Z,16.03
2023-04-18T20:31:08.486Z,15.74
2023-04-18T20:33:36.514Z,16.10
2023-04-18T20:36:15.042Z,16.05
2023-04-18T20:38:42.148Z,16.16
2023-04-18T20:41:18.293Z,15.96
2023-04-18T20:43:50.672Z,16.28
2023-04-18T20:46:18.154Z,16.32
2023-04-18T20:48:45.258Z,16.02
2023-04-18T20:51:12.284Z,15.95
2023-04-18T20:53:39.692Z,16.05
2023-04-18T20:56:07.122Z,16.11
2023-04-18T20:58:34.198Z,16.18
2023-04-18T21:01:01.702Z,16.18
2023-04-18T21:03:28.884Z,16.00
2023-04-18T21:05:56.165Z,16.47
2023-04-18T21:08:23.569Z,15.79
2023-04-18T21:10:50.818Z,16.02
2023-04-18T21:13:17.961Z,15.54
2023-04-18T21:15:45.499Z,15.77
2023-04-18T21:18:12.589Z,15.33
2023-04-18T21:20:39.707Z,15.59
2023-04-18T21:23:07.161Z,15.78
2023-04-18T21:25:34.477Z,16.22
2023-04-18T21:28:01.569Z,16.41
2023-04-18T21:30:28.998Z,16.47
2023-04-18T21:32:56.509Z,16.51
2023-04-18T21:35:24.882Z,16.60
2023-04-18T21:37:52.160Z,15.92
2023-04-18T21:40:19.345Z,15.05
2023-04-18T21:42:48.144Z,15.91
2023-04-18T21:45:19.899Z,16.09
2023-04-18T21:47:47.047Z,15.68
2023-04-18T21:50:14.088Z,15.72
2023-04-18T21:52:41.074Z,15.71
2023-04-18T21:55:08.785Z,16.02
2023-04-18T21:57:35.922Z,15.71
2023-04-18T22:00:03.066Z,15.53
2023-04-18T22:02:35.984Z,16.23
2023-04-18T22:05:03.511Z,15.50
2023-04-18T22:07:31.085Z,15.88
2023-04-18T22:09:59.878Z,16.09
2023-04-18T22:12:27.128Z,16.22
2023-04-18T22:14:54.675Z,16.25
2023-04-18T22:17:22.368Z,16.47
2023-04-18T22:19:50.452Z,16.49
2023-04-18T22:22:18.072Z,15.73
2023-04-18T22:24:47.447Z,15.98
2023-04-18T22:27:15.247Z,15.29
2023-04-18T22:29:42.666Z,16.34
2023-04-18T22:32:10.282Z,15.60
2023-04-18T22:34:37.669Z,15.81
2023-04-18T22:37:06.121Z,15.94
2023-04-18T22:39:33.329Z,15.85
2023-04-18T22:42:00.988Z,15.76
2023-04-18T22:44:28.346Z,16.29
2023-04-18T22:46:55.527Z,16.11
2023-04-18T22:49:23.232Z,16.29
2023-04-18T22:51:54.564Z,16.31
2023-04-18T22:54:22.052Z,16.29
2023-04-18T22:56:50.341Z,15.49
2023-04-18T22:59:17.800Z,15.58
2023-04-18T23:01:45.327Z,16.35
2023-04-18T23:04:12.652Z,15.98
2023-04-18T23:06:40.212Z,15.39
2023-04-18T23:09:09.601Z,15.92
2023-04-18T23:11:36.986Z,16.68
2023-04-18T23:14:04.164Z,16.35
2023-04-18T23:16:32.649Z,15.77
2023-04-18T23:19:00.146Z,16.49
2023-04-18T23:21:28.154Z,16.51
2023-04-18T23:23:55.350Z,16.41
2023-04-18T23:26:23.949Z,15.90
2023-04-18T23:28:51.736Z,16.11
2023-04-18T23:31:19.511Z,16.27
2023-04-18T23:33:46.760Z,16.47
2023-04-18T23:36:14.200Z,16.24
2023-04-18T23:38:41.872Z,15.57
2023-04-18T23:41:09.537Z,15.74
2023-04-18T23:43:36.983Z,15.65
2023-04-18T23:46:04.100Z,16.66
2023-04-18T23:48:31.259Z,16.08
2023-04-18T23:50:58.791Z,16.42
2023-04-18T23:53:25.840Z,15.49
2023-04-18T23:55:53.687Z,15.72
2023-04-18T23:58:21.079Z,15.72
